sensor_id;sensor_type;location;lat;lon;timestamp;pressure;altitude;pressure_sealevel;temperature;humidity
39699;BME280;25372;50.582;12.250;2022-07-17T00:03:21;100771.13;;;12.00;59.18
39699;BME280;25372;50.582;12.250;2022-07-17T00:13:43;100778.59;;;11.80;61.37
39699;BME280;25372;50.582;12.250;2022-07-17T00:24:05;100745.78;;;11.40;62.06
39699;BME280;25372;50.582;12.250;2022-07-17T00:34:28;100783.44;;;11.35;64.57
39699;BME280;25372;50.582;12.250;2022-07-17T00:44:49;100783.88;;;10.89;65.94
39699;BME280;25372;50.582;12.250;2022-07-17T00:55:13;100787.16;;;10.83;66.57
39699;BME280;25372;50.582;12.250;2022-07-17T01:05:34;100791.03;;;11.05;64.47
39699;BME280;25372;50.582;12.250;2022-07-17T01:15:56;100801.91;;;10.77;65.50
39699;BME280;25372;50.582;12.250;2022-07-17T01:26:19;100803.44;;;10.96;64.54
39699;BME280;25372;50.582;12.250;2022-07-17T01:36:40;100805.06;;;10.81;65.37
39699;BME280;25372;50.582;12.250;2022-07-17T01:47:02;100805.31;;;10.61;66.70
39699;BME280;25372;50.582;12.250;2022-07-17T01:57:23;100787.69;;;10.36;67.85
39699;BME280;25372;50.582;12.250;2022-07-17T02:07:46;100797.06;;;10.30;68.61
39699;BME280;25372;50.582;12.250;2022-07-17T02:18:07;100793.06;;;10.26;70.26
39699;BME280;25372;50.582;12.250;2022-07-17T02:28:29;100805.84;;;10.04;69.92
39699;BME280;25372;50.582;12.250;2022-07-17T02:38:50;100812.66;;;9.81;71.75
39699;BME280;25372;50.582;12.250;2022-07-17T02:49:12;100813.38;;;9.91;70.96
39699;BME280;25372;50.582;12.250;2022-07-17T02:59:32;100808.78;;;9.75;70.15
39699;BME280;25372;50.582;12.250;2022-07-17T03:09:55;100809.72;;;9.48;72.50
39699;BME280;25372;50.582;12.250;2022-07-17T03:20:16;100819.88;;;9.97;70.25
39699;BME280;25372;50.582;12.250;2022-07-17T03:30:38;100814.84;;;10.11;70.31
39699;BME280;25372;50.582;12.250;2022-07-17T03:40:58;100828.28;;;9.92;70.49
39699;BME280;25372;50.582;12.250;2022-07-17T03:51:21;100828.38;;;9.82;72.20
39699;BME280;25372;50.582;12.250;2022-07-17T04:01:42;100851.28;;;9.91;72.23
39699;BME280;25372;50.582;12.250;2022-07-17T04:12:05;100854.78;;;9.92;75.48
39699;BME280;25372;50.582;12.250;2022-07-17T04:22:26;100857.25;;;10.72;69.25
39699;BME280;25372;50.582;12.250;2022-07-17T04:32:47;100860.97;;;10.96;68.85
39699;BME280;25372;50.582;12.250;2022-07-17T04:43:08;100862.38;;;11.25;67.86
39699;BME280;25372;50.582;12.250;2022-07-17T04:53:30;100881.84;;;11.58;68.47
39699;BME280;25372;50.582;12.250;2022-07-17T05:03:51;100876.50;;;12.41;66.01
39699;BME280;25372;50.582;12.250;2022-07-17T05:14:13;100868.94;;;13.00;62.27
39699;BME280;25372;50.582;12.250;2022-07-17T05:24:34;100870.25;;;19.34;44.65
39699;BME280;25372;50.582;12.250;2022-07-17T05:34:56;100870.69;;;25.49;32.13
39699;BME280;25372;50.582;12.250;2022-07-17T05:45:17;100867.38;;;24.92;33.61
39699;BME280;25372;50.582;12.250;2022-07-17T05:55:39;100886.59;;;27.16;29.70
39699;BME280;25372;50.582;12.250;2022-07-17T06:06:00;100888.69;;;28.53;27.99
39699;BME280;25372;50.582;12.250;2022-07-17T06:16:21;100890.88;;;24.42;33.22
39699;BME280;25372;50.582;12.250;2022-07-17T06:26:42;100903.31;;;16.73;47.97
39699;BME280;25372;50.582;12.250;2022-07-17T06:37:04;100883.75;;;16.10;50.06
39699;BME280;25372;50.582;12.250;2022-07-17T06:47:25;100914.78;;;16.32;50.93
39699;BME280;25372;50.582;12.250;2022-07-17T06:57:47;100920.63;;;16.43;49.98
39699;BME280;25372;50.582;12.250;2022-07-17T07:08:08;100930.06;;;16.73;48.95
39699;BME280;25372;50.582;12.250;2022-07-17T07:18:29;100913.50;;;17.47;48.27
39699;BME280;25372;50.582;12.250;2022-07-17T07:28:51;100917.06;;;17.74;49.15
39699;BME280;25372;50.582;12.250;2022-07-17T07:39:13;100929.47;;;17.95;47.48
39699;BME280;25372;50.582;12.250;2022-07-17T07:49:34;100915.59;;;17.85;49.05
39699;BME280;25372;50.582;12.250;2022-07-17T07:59:56;100915.81;;;18.43;46.63
39699;BME280;25372;50.582;12.250;2022-07-17T08:10:17;100917.44;;;18.64;46.25
39699;BME280;25372;50.582;12.250;2022-07-17T08:20:39;100916.63;;;19.23;45.91
39699;BME280;25372;50.582;12.250;2022-07-17T08:31:00;100909.06;;;19.77;44.17
39699;BME280;25372;50.582;12.250;2022-07-17T08:41:22;100915.09;;;20.04;42.92
39699;BME280;25372;50.582;12.250;2022-07-17T08:51:42;100891.13;;;23.39;36.72
39699;BME280;25372;50.582;12.250;2022-07-17T09:02:05;100905.34;;;22.41;37.65
39699;BME280;25372;50.582;12.250;2022-07-17T09:12:26;100898.75;;;21.89;39.14
39699;BME280;25372;50.582;12.250;2022-07-17T09:22:59;100891.16;;;22.86;36.54
39699;BME280;25372;50.582;12.250;2022-07-17T09:33:21;100901.53;;;22.89;36.88
39699;BME280;25372;50.582;12.250;2022-07-17T09:43:46;100893.72;;;22.28;37.81
39699;BME280;25372;50.582;12.250;2022-07-17T09:54:09;100895.63;;;22.92;37.30
39699;BME280;25372;50.582;12.250;2022-07-17T10:04:32;100899.13;;;22.52;38.19
39699;BME280;25372;50.582;12.250;2022-07-17T10:14:54;100891.47;;;21.90;37.40
39699;BME280;25372;50.582;12.250;2022-07-17T10:25:17;100884.06;;;21.73;37.18
39699;BME280;25372;50.582;12.250;2022-07-17T10:35:47;100879.59;;;21.55;38.29
39699;BME280;25372;50.582;12.250;2022-07-17T10:46:11;100880.91;;;22.59;35.33
39699;BME280;25372;50.582;12.250;2022-07-17T10:56:32;100880.84;;;22.83;36.40
39699;BME280;25372;50.582;12.250;2022-07-17T11:06:54;100882.91;;;21.81;36.75
39699;BME280;25372;50.582;12.250;2022-07-17T11:17:18;100873.53;;;22.31;36.89
39699;BME280;25372;50.582;12.250;2022-07-17T11:27:40;100867.84;;;21.62;36.17
39699;BME280;25372;50.582;12.250;2022-07-17T11:38:01;100847.00;;;22.16;35.24
39699;BME280;25372;50.582;12.250;2022-07-17T11:48:23;100859.31;;;21.76;36.53
39699;BME280;25372;50.582;12.250;2022-07-17T11:58:46;100843.28;;;23.10;34.85
39699;BME280;25372;50.582;12.250;2022-07-17T12:09:09;100830.56;;;22.41;33.97
39699;BME280;25372;50.582;12.250;2022-07-17T12:19:30;100837.56;;;22.66;32.77
39699;BME280;25372;50.582;12.250;2022-07-17T12:29:52;100831.00;;;22.91;33.42
39699;BME280;25372;50.582;12.250;2022-07-17T12:40:13;100823.91;;;23.02;34.04
39699;BME280;25372;50.582;12.250;2022-07-17T12:50:34;100813.00;;;22.96;33.77
39699;BME280;25372;50.582;12.250;2022-07-17T13:00:55;100814.91;;;23.42;32.78
39699;BME280;25372;50.582;12.250;2022-07-17T13:11:18;100788.81;;;23.53;33.24
39699;BME280;25372;50.582;12.250;2022-07-17T13:21:38;100784.25;;;24.31;32.39
39699;BME280;25372;50.582;12.250;2022-07-17T13:32:01;100791.34;;;24.37;31.20
39699;BME280;25372;50.582;12.250;2022-07-17T13:42:23;100779.91;;;26.15;26.93
39699;BME280;25372;50.582;12.250;2022-07-17T13:52:45;100767.91;;;27.20;26.01
39699;BME280;25372;50.582;12.250;2022-07-17T14:03:06;100760.81;;;26.78;24.51
39699;BME280;25372;50.582;12.250;2022-07-17T14:13:29;100754.16;;;26.33;24.95
39699;BME280;25372;50.582;12.250;2022-07-17T14:23:50;100748.28;;;27.70;24.91
39699;BME280;25372;50.582;12.250;2022-07-17T14:34:12;100744.66;;;29.00;23.35
39699;BME280;25372;50.582;12.250;2022-07-17T14:44:33;100730.13;;;27.34;24.95
39699;BME280;25372;50.582;12.250;2022-07-17T14:54:55;100712.06;;;27.74;25.58
39699;BME280;25372;50.582;12.250;2022-07-17T15:05:16;100723.41;;;28.57;23.75
39699;BME280;25372;50.582;12.250;2022-07-17T15:15:38;100713.25;;;28.68;22.29
39699;BME280;25372;50.582;12.250;2022-07-17T15:25:58;100715.59;;;28.85;22.64
39699;BME280;25372;50.582;12.250;2022-07-17T15:36:20;100697.94;;;27.62;22.49
39699;BME280;25372;50.582;12.250;2022-07-17T15:46:45;100713.13;;;27.83;23.35
39699;BME280;25372;50.582;12.250;2022-07-17T15:57:07;100697.09;;;28.37;22.79
39699;BME280;25372;50.582;12.250;2022-07-17T16:07:28;100683.28;;;30.23;21.46
39699;BME280;25372;50.582;12.250;2022-07-17T16:17:51;100680.47;;;29.37;22.80
39699;BME280;25372;50.582;12.250;2022-07-17T16:28:11;100681.13;;;30.20;22.99
39699;BME280;25372;50.582;12.250;2022-07-17T16:38:33;100677.50;;;28.25;23.32
39699;BME280;25372;50.582;12.250;2022-07-17T16:48:54;100675.06;;;27.58;24.21
39699;BME280;25372;50.582;12.250;2022-07-17T16:59:18;100650.94;;;28.01;22.73
39699;BME280;25372;50.582;12.250;2022-07-17T17:09:40;100666.28;;;27.76;22.97
39699;BME280;25372;50.582;12.250;2022-07-17T17:20:02;100671.41;;;28.43;23.13
39699;BME280;25372;50.582;12.250;2022-07-17T17:30:23;100665.16;;;27.82;24.07
39699;BME280;25372;50.582;12.250;2022-07-17T17:40:45;100657.47;;;26.68;23.85
39699;BME280;25372;50.582;12.250;2022-07-17T17:51:07;100661.34;;;24.15;27.22
39699;BME280;25372;50.582;12.250;2022-07-17T18:01:30;100668.44;;;22.53;29.03
39699;BME280;25372;50.582;12.250;2022-07-17T18:11:51;100661.56;;;21.64;32.33
39699;BME280;25372;50.582;12.250;2022-07-17T18:22:13;100666.34;;;21.38;33.44
39699;BME280;25372;50.582;12.250;2022-07-17T18:32:33;100677.91;;;20.49;39.85
39699;BME280;25372;50.582;12.250;2022-07-17T18:42:56;100680.19;;;19.41;51.66
39699;BME280;25372;50.582;12.250;2022-07-17T18:53:16;100681.69;;;18.41;51.44
39699;BME280;25372;50.582;12.250;2022-07-17T19:03:40;100695.34;;;17.68;56.16
39699;BME280;25372;50.582;12.250;2022-07-17T19:14:01;100702.59;;;17.20;55.85
39699;BME280;25372;50.582;12.250;2022-07-17T19:24:22;100711.19;;;16.69;55.44
39699;BME280;25372;50.582;12.250;2022-07-17T19:34:44;100729.28;;;16.12;56.78
39699;BME280;25372;50.582;12.250;2022-07-17T19:45:07;100737.28;;;16.05;55.72
39699;BME280;25372;50.582;12.250;2022-07-17T19:55:28;100741.28;;;15.38;57.47
39699;BME280;25372;50.582;12.250;2022-07-17T20:05:50;100748.97;;;15.47;58.69
39699;BME280;25372;50.582;12.250;2022-07-17T20:16:11;100755.50;;;14.95;56.97
39699;BME280;25372;50.582;12.250;2022-07-17T20:26:33;100759.41;;;14.77;60.39
39699;BME280;25372;50.582;12.250;2022-07-17T20:36:54;100754.13;;;14.62;58.99
39699;BME280;25372;50.582;12.250;2022-07-17T20:47:16;100737.84;;;14.42;61.18
39699;BME280;25372;50.582;12.250;2022-07-17T20:57:37;100757.72;;;14.25;61.46
39699;BME280;25372;50.582;12.250;2022-07-17T21:07:59;100763.38;;;14.52;60.74
39699;BME280;25372;50.582;12.250;2022-07-17T21:18:21;100768.00;;;14.43;59.03
39699;BME280;25372;50.582;12.250;2022-07-17T21:28:43;100778.88;;;14.11;60.71
39699;BME280;25372;50.582;12.250;2022-07-17T21:39:04;100785.41;;;14.24;59.11
39699;BME280;25372;50.582;12.250;2022-07-17T21:49:27;100778.16;;;14.03;57.88
39699;BME280;25372;50.582;12.250;2022-07-17T21:59:48;100749.72;;;13.80;59.27
39699;BME280;25372;50.582;12.250;2022-07-17T22:10:11;100783.38;;;14.41;56.67
39699;BME280;25372;50.582;12.250;2022-07-17T22:20:33;100783.09;;;14.51;54.97
39699;BME280;25372;50.582;12.250;2022-07-17T22:30:55;100786.25;;;14.24;54.74
39699;BME280;25372;50.582;12.250;2022-07-17T22:41:16;100778.84;;;13.82;56.31
39699;BME280;25372;50.582;12.250;2022-07-17T22:51:38;100775.31;;;14.04;55.06
39699;BME280;25372;50.582;12.250;2022-07-17T23:02:00;100777.16;;;14.04;55.65
39699;BME280;25372;50.582;12.250;2022-07-17T23:12:22;100774.56;;;13.81;55.29
39699;BME280;25372;50.582;12.250;2022-07-17T23:22:43;100774.53;;;13.19;58.72
39699;BME280;25372;50.582;12.250;2022-07-17T23:33:05;100766.47;;;13.04;61.04
39699;BME280;25372;50.582;12.250;2022-07-17T23:43:26;100760.44;;;13.34;58.16
39699;BME280;25372;50.582;12.250;2022-07-17T23:53:48;100757.13;;;13.55;58.21
